sensor_id;sensor_type;location;lat;lon;timestamp;pressure;altitude;pressure_sealevel;temperature;humidity
19843;BME280;10082;51.038;6.992;2023-03-04T00:00:04;62706.22;;;-144.33;100.00
19843;BME280;10082;51.038;6.992;2023-03-04T00:02:35;62362.25;;;-144.33;100.00
19843;BME280;10082;51.038;6.992;2023-03-04T00:05:03;62181.31;;;-144.33;100.00
19843;BME280;10082;51.038;6.992;2023-03-04T00:07:32;62248.94;;;-144.33;100.00
19843;BME280;10082;51.038;6.992;2023-03-04T00:10:00;60946.88;;;-144.33;100.00
19843;BME280;10082;51.038;6.992;2023-03-04T00:12:28;60899.19;;;-144.33;100.00
19843;BME280;10082;51.038;6.992;2023-03-04T00:14:55;61111.84;;;-144.33;100.00
19843;BME280;10082;51.038;6.992;2023-03-04T00:17:22;61185.38;;;-144.33;100.00
19843;BME280;10082;51.038;6.992;2023-03-04T00:19:49;61250.97;;;-144.33;100.00
19843;BME280;10082;51.038;6.992;2023-03-04T00:22:17;60295.00;;;-144.33;100.00
19843;BME280;10082;51.038;6.992;2023-03-04T00:24:46;59981.06;;;-144.33;100.00
19843;BME280;10082;51.038;6.992;2023-03-04T00:27:13;60181.75;;;-144.33;100.00
19843;BME280;10082;51.038;6.992;2023-03-04T00:29:40;59943.28;;;-144.33;100.00
19843;BME280;10082;51.038;6.992;2023-03-04T00:32:07;59631.34;;;-144.33;100.00
19843;BME280;10082;51.038;6.992;2023-03-04T00:34:35;58997.59;;;-144.33;100.00
19843;BME280;10082;51.038;6.992;2023-03-04T00:37:02;57289.50;;;-144.33;100.00
19843;BME280;10082;51.038;6.992;2023-03-04T00:39:30;57738.31;;;-144.33;100.00
19843;BME280;10082;51.038;6.992;2023-03-04T00:42:01;58091.81;;;-144.33;100.00
19843;BME280;10082;51.038;6.992;2023-03-04T00:44:28;57954.78;;;-144.33;100.00
19843;BME280;10082;51.038;6.992;2023-03-04T00:46:55;57013.50;;;-144.33;100.00
19843;BME280;10082;51.038;6.992;2023-03-04T00:49:22;56427.81;;;-144.33;100.00
19843;BME280;10082;51.038;6.992;2023-03-04T00:51:50;55647.66;;;-144.33;100.00
19843;BME280;10082;51.038;6.992;2023-03-04T00:54:18;55431.31;;;-144.33;100.00
19843;BME280;10082;51.038;6.992;2023-03-04T00:56:46;55389.63;;;-144.33;100.00
19843;BME280;10082;51.038;6.992;2023-03-04T00:59:16;54214.84;;;-144.33;100.00
19843;BME280;10082;51.038;6.992;2023-03-04T01:01:45;53585.91;;;-144.33;100.00
19843;BME280;10082;51.038;6.992;2023-03-04T01:04:13;53611.69;;;-144.33;100.00
19843;BME280;10082;51.038;6.992;2023-03-04T01:06:40;53042.38;;;-144.33;100.00
19843;BME280;10082;51.038;6.992;2023-03-04T01:09:08;52760.72;;;-144.33;100.00
19843;BME280;10082;51.038;6.992;2023-03-04T01:11:35;52286.69;;;-144.33;100.00
19843;BME280;10082;51.038;6.992;2023-03-04T01:14:02;51666.00;;;-144.33;100.00
19843;BME280;10082;51.038;6.992;2023-03-04T01:16:32;51445.91;;;-144.33;100.00
19843;BME280;10082;51.038;6.992;2023-03-04T01:18:59;51755.22;;;-144.33;100.00
19843;BME280;10082;51.038;6.992;2023-03-04T01:21:27;51900.00;;;-144.33;100.00
19843;BME280;10082;51.038;6.992;2023-03-04T01:23:54;51612.47;;;-144.33;100.00
19843;BME280;10082;51.038;6.992;2023-03-04T01:26:21;51507.38;;;-144.33;100.00
19843;BME280;10082;51.038;6.992;2023-03-04T01:28:49;51225.81;;;-144.33;100.00
19843;BME280;10082;51.038;6.992;2023-03-04T01:31:16;51126.69;;;-144.33;100.00
19843;BME280;10082;51.038;6.992;2023-03-04T01:33:44;50260.38;;;-144.33;100.00
19843;BME280;10082;51.038;6.992;2023-03-04T01:36:12;49566.69;;;-144.33;100.00
19843;BME280;10082;51.038;6.992;2023-03-04T01:38:39;48564.00;;;-144.33;100.00
19843;BME280;10082;51.038;6.992;2023-03-04T01:41:06;47656.66;;;-144.33;100.00
19843;BME280;10082;51.038;6.992;2023-03-04T01:43:35;47692.31;;;-144.33;100.00
19843;BME280;10082;51.038;6.992;2023-03-04T01:46:04;47331.81;;;-144.33;100.00
19843;BME280;10082;51.038;6.992;2023-03-04T01:48:34;46723.78;;;-144.33;100.00
19843;BME280;10082;51.038;6.992;2023-03-04T01:51:08;46775.25;;;-144.33;100.00
19843;BME280;10082;51.038;6.992;2023-03-04T01:53:37;46888.16;;;-144.33;100.00
19843;BME280;10082;51.038;6.992;2023-03-04T01:56:12;46854.47;;;-144.33;100.00
19843;BME280;10082;51.038;6.992;2023-03-04T01:58:41;47048.56;;;-144.33;100.00
19843;BME280;10082;51.038;6.992;2023-03-04T02:01:10;46551.47;;;-144.33;100.00
19843;BME280;10082;51.038;6.992;2023-03-04T02:03:38;46505.94;;;-144.33;100.00
19843;BME280;10082;51.038;6.992;2023-03-04T02:06:07;46551.47;;;-144.33;100.00
19843;BME280;10082;51.038;6.992;2023-03-04T02:08:34;46408.91;;;-144.33;100.00
19843;BME280;10082;51.038;6.992;2023-03-04T02:11:02;46155.44;;;-144.33;100.00
19843;BME280;10082;51.038;6.992;2023-03-04T02:13:29;46420.78;;;-144.33;100.00
19843;BME280;10082;51.038;6.992;2023-03-04T02:15:58;47012.91;;;-144.33;100.00
19843;BME280;10082;51.038;6.992;2023-03-04T02:18:26;47504.13;;;-144.33;100.00
19843;BME280;10082;51.038;6.992;2023-03-04T02:20:59;47791.34;;;-144.33;100.00
19843;BME280;10082;51.038;6.992;2023-03-04T02:23:34;48443.13;;;-144.33;100.00
19843;BME280;10082;51.038;6.992;2023-03-04T02:26:12;48266.81;;;-144.33;100.00
19843;BME280;10082;51.038;6.992;2023-03-04T02:28:41;48239.06;;;-144.33;100.00
19843;BME280;10082;51.038;6.992;2023-03-04T02:31:20;48674.97;;;-144.33;100.00
19843;BME280;10082;51.038;6.992;2023-03-04T02:33:49;49229.78;;;-144.33;100.00
19843;BME280;10082;51.038;6.992;2023-03-04T02:36:22;48714.59;;;-144.33;100.00
19843;BME280;10082;51.038;6.992;2023-03-04T02:38:51;48387.66;;;-144.33;100.00
19843;BME280;10082;51.038;6.992;2023-03-04T02:41:23;48280.69;;;-144.33;100.00
19843;BME280;10082;51.038;6.992;2023-03-04T02:43:52;48104.34;;;-144.33;100.00
19843;BME280;10082;51.038;6.992;2023-03-04T02:46:20;48084.53;;;-144.33;100.00
19843;BME280;10082;51.038;6.992;2023-03-04T02:48:48;48661.09;;;-144.33;100.00
19843;BME280;10082;51.038;6.992;2023-03-04T02:51:15;48964.25;;;-144.33;100.00
19843;BME280;10082;51.038;6.992;2023-03-04T02:53:44;49455.69;;;-144.33;100.00
19843;BME280;10082;51.038;6.992;2023-03-04T02:56:11;49758.94;;;-144.33;100.00
19843;BME280;10082;51.038;6.992;2023-03-04T02:58:43;49770.81;;;-144.33;100.00
19843;BME280;10082;51.038;6.992;2023-03-04T03:01:11;49604.34;;;-144.33;100.00
19843;BME280;10082;51.038;6.992;2023-03-04T03:03:38;49023.69;;;-144.33;100.00
19843;BME280;10082;51.038;6.992;2023-03-04T03:06:06;48554.09;;;-144.33;100.00
19843;BME280;10082;51.038;6.992;2023-03-04T03:08:33;48476.81;;;-144.33;100.00
19843;BME280;10082;51.038;6.992;2023-03-04T03:11:00;48064.72;;;-144.33;100.00
19843;BME280;10082;51.038;6.992;2023-03-04T03:13:30;47781.44;;;-144.33;100.00
19843;BME280;10082;51.038;6.992;2023-03-04T03:15:59;47014.91;;;-144.33;100.00
19843;BME280;10082;51.038;6.992;2023-03-04T03:18:26;46430.69;;;-144.33;100.00
19843;BME280;10082;51.038;6.992;2023-03-04T03:20:53;46527.72;;;-144.33;100.00
19843;BME280;10082;51.038;6.992;2023-03-04T03:23:21;46646.53;;;-144.33;100.00
19843;BME280;10082;51.038;6.992;2023-03-04T03:25:48;46246.53;;;-144.33;100.00
19843;BME280;10082;51.038;6.992;2023-03-04T03:28:16;46614.84;;;-144.33;100.00
19843;BME280;10082;51.038;6.992;2023-03-04T03:30:43;46824.78;;;-144.33;100.00
19843;BME280;10082;51.038;6.992;2023-03-04T03:33:12;46117.81;;;-144.33;100.00
19843;BME280;10082;51.038;6.992;2023-03-04T03:35:39;45331.78;;;-144.33;100.00
19843;BME280;10082;51.038;6.992;2023-03-04T03:38:07;45098.19;;;-144.33;100.00
19843;BME280;10082;51.038;6.992;2023-03-04T03:40:34;44549.88;;;-144.33;100.00
19843;BME280;10082;51.038;6.992;2023-03-04T03:43:02;44294.56;;;-144.33;100.00
19843;BME280;10082;51.038;6.992;2023-03-04T03:45:29;44625.09;;;-144.33;100.00
19843;BME280;10082;51.038;6.992;2023-03-04T03:47:56;44110.50;;;-144.33;100.00
19843;BME280;10082;51.038;6.992;2023-03-04T03:50:25;44324.25;;;-144.33;100.00
19843;BME280;10082;51.038;6.992;2023-03-04T03:52:54;45288.22;;;-144.33;100.00
19843;BME280;10082;51.038;6.992;2023-03-04T03:55:21;45872.28;;;-144.33;100.00
19843;BME280;10082;51.038;6.992;2023-03-04T03:57:48;46159.38;;;-144.33;100.00
19843;BME280;10082;51.038;6.992;2023-03-04T04:00:17;46941.63;;;-144.33;100.00
19843;BME280;10082;51.038;6.992;2023-03-04T04:02:44;47636.84;;;-144.33;100.00
19843;BME280;10082;51.038;6.992;2023-03-04T04:05:12;48128.13;;;-144.33;100.00
19843;BME280;10082;51.038;6.992;2023-03-04T04:07:41;47753.72;;;-144.33;100.00
19843;BME280;10082;51.038;6.992;2023-03-04T04:10:10;47819.09;;;-144.33;100.00
19843;BME280;10082;51.038;6.992;2023-03-04T04:12:37;48153.88;;;-144.33;100.00
19843;BME280;10082;51.038;6.992;2023-03-04T04:15:06;49364.53;;;-144.33;100.00
19843;BME280;10082;51.038;6.992;2023-03-04T04:17:33;49770.81;;;-144.33;100.00
19843;BME280;10082;51.038;6.992;2023-03-04T04:20:01;49503.25;;;-144.33;100.00
19843;BME280;10082;51.038;6.992;2023-03-04T04:22:28;47862.66;;;-144.33;100.00
19843;BME280;10082;51.038;6.992;2023-03-04T04:24:57;48104.34;;;-144.33;100.00
19843;BME280;10082;51.038;6.992;2023-03-04T04:27:24;48044.94;;;-144.33;100.00
19843;BME280;10082;51.038;6.992;2023-03-04T04:29:51;47292.19;;;-144.33;100.00
19843;BME280;10082;51.038;6.992;2023-03-04T04:32:18;45640.63;;;-144.33;100.00
19843;BME280;10082;51.038;6.992;2023-03-04T04:34:46;45357.53;;;-144.33;100.00
19843;BME280;10082;51.038;6.992;2023-03-04T04:37:13;45620.84;;;-144.33;100.00
19843;BME280;10082;51.038;6.992;2023-03-04T04:39:40;45959.41;;;-144.33;100.00
19843;BME280;10082;51.038;6.992;2023-03-04T04:42:10;46503.94;;;-144.33;100.00
19843;BME280;10082;51.038;6.992;2023-03-04T04:44:37;45884.16;;;-144.33;100.00
19843;BME280;10082;51.038;6.992;2023-03-04T04:47:05;44743.84;;;-144.33;100.00
19843;BME280;10082;51.038;6.992;2023-03-04T04:49:33;43906.66;;;-144.33;100.00
19843;BME280;10082;51.038;6.992;2023-03-04T04:52:00;43815.63;;;-144.33;100.00
19843;BME280;10082;51.038;6.992;2023-03-04T04:54:27;45082.34;;;-144.33;100.00
19843;BME280;10082;51.038;6.992;2023-03-04T04:56:55;45050.69;;;-144.33;100.00
19843;BME280;10082;51.038;6.992;2023-03-04T04:59:27;44508.31;;;-144.33;100.00
19843;BME280;10082;51.038;6.992;2023-03-04T05:01:54;43928.41;;;-144.33;100.00
19843;BME280;10082;51.038;6.992;2023-03-04T05:04:22;44777.50;;;-144.33;100.00
19843;BME280;10082;51.038;6.992;2023-03-04T05:06:49;45131.84;;;-144.33;100.00
19843;BME280;10082;51.038;6.992;2023-03-04T05:09:16;44737.91;;;-144.33;100.00
19843;BME280;10082;51.038;6.992;2023-03-04T05:11:45;44866.59;;;-144.33;100.00
19843;BME280;10082;51.038;6.992;2023-03-04T05:14:12;45278.34;;;-144.33;100.00
19843;BME280;10082;51.038;6.992;2023-03-04T05:16:41;45662.41;;;-144.33;100.00
19843;BME280;10082;51.038;6.992;2023-03-04T05:19:09;46290.09;;;-144.33;100.00
19843;BME280;10082;51.038;6.992;2023-03-04T05:21:36;46264.34;;;-144.33;100.00
19843;BME280;10082;51.038;6.992;2023-03-04T05:24:04;46771.31;;;-144.33;100.00
19843;BME280;10082;51.038;6.992;2023-03-04T05:26:31;46444.53;;;-144.33;100.00
19843;BME280;10082;51.038;6.992;2023-03-04T05:28:59;46656.44;;;-144.33;100.00
19843;BME280;10082;51.038;6.992;2023-03-04T05:31:27;46268.31;;;-144.33;100.00
19843;BME280;10082;51.038;6.992;2023-03-04T05:33:55;45775.25;;;-144.33;100.00
19843;BME280;10082;51.038;6.992;2023-03-04T05:36:23;45642.63;;;-144.33;100.00
19843;BME280;10082;51.038;6.992;2023-03-04T05:38:50;45098.19;;;-144.33;100.00
19843;BME280;10082;51.038;6.992;2023-03-04T05:41:17;44771.56;;;-144.33;100.00
19843;BME280;10082;51.038;6.992;2023-03-04T05:43:50;44741.88;;;-144.33;100.00
19843;BME280;10082;51.038;6.992;2023-03-04T05:46:18;45272.41;;;-144.33;100.00
19843;BME280;10082;51.038;6.992;2023-03-04T05:48:50;45173.41;;;-144.33;100.00
19843;BME280;10082;51.038;6.992;2023-03-04T05:51:22;46024.75;;;-144.33;100.00
19843;BME280;10082;51.038;6.992;2023-03-04T05:53:49;45616.88;;;-144.33;100.00
19843;BME280;10082;51.038;6.992;2023-03-04T05:56:18;45149.66;;;-144.33;100.00
19843;BME280;10082;51.038;6.992;2023-03-04T05:58:46;44183.72;;;-144.33;100.00
19843;BME280;10082;51.038;6.992;2023-03-04T06:01:15;43748.34;;;-144.33;100.00
19843;BME280;10082;51.038;6.992;2023-03-04T06:03:42;42905.41;;;-144.33;100.00
19843;BME280;10082;51.038;6.992;2023-03-04T06:06:10;43144.81;;;-144.33;100.00
19843;BME280;10082;51.038;6.992;2023-03-04T06:08:39;43204.16;;;-144.33;100.00
19843;BME280;10082;51.038;6.992;2023-03-04T06:11:06;43380.28;;;-144.33;100.00
19843;BME280;10082;51.038;6.992;2023-03-04T06:13:34;43180.44;;;-144.33;100.00
19843;BME280;10082;51.038;6.992;2023-03-04T06:16:03;42122.00;;;-144.33;100.00
19843;BME280;10082;51.038;6.992;2023-03-04T06:18:30;41643.31;;;-144.33;100.00
19843;BME280;10082;51.038;6.992;2023-03-04T06:20:58;41421.81;;;-144.33;100.00
19843;BME280;10082;51.038;6.992;2023-03-04T06:23:26;41350.63;;;-144.33;100.00
19843;BME280;10082;51.038;6.992;2023-03-04T06:25:57;41419.84;;;-144.33;100.00
19843;BME280;10082;51.038;6.992;2023-03-04T06:28:25;42072.53;;;-144.33;100.00
19843;BME280;10082;51.038;6.992;2023-03-04T06:30:52;42735.25;;;-144.33;100.00
19843;BME280;10082;51.038;6.992;2023-03-04T06:33:20;42901.44;;;-144.33;100.00
19843;BME280;10082;51.038;6.992;2023-03-04T06:35:48;43716.66;;;-144.33;100.00
19843;BME280;10082;51.038;6.992;2023-03-04T06:38:19;44741.88;;;-144.33;100.00
19843;BME280;10082;51.038;6.992;2023-03-04T06:40:47;45426.81;;;-144.33;100.00
19843;BME280;10082;51.038;6.992;2023-03-04T06:43:16;46587.13;;;-144.33;100.00
19843;BME280;10082;51.038;6.992;2023-03-04T06:45:44;47834.94;;;-144.33;100.00
19843;BME280;10082;51.038;6.992;2023-03-04T06:48:11;48688.81;;;-144.33;100.00
19843;BME280;10082;51.038;6.992;2023-03-04T06:50:39;49453.72;;;-144.33;100.00
19843;BME280;10082;51.038;6.992;2023-03-04T06:53:06;50476.44;;;-144.33;100.00
19843;BME280;10082;51.038;6.992;2023-03-04T06:55:33;51184.19;;;-144.33;100.00
19843;BME280;10082;51.038;6.992;2023-03-04T06:58:01;52645.69;;;-144.33;100.00
19843;BME280;10082;51.038;6.992;2023-03-04T07:00:29;53877.53;;;-144.33;100.00
19843;BME280;10082;51.038;6.992;2023-03-04T07:02:57;55121.72;;;-144.33;100.00
19843;BME280;10082;51.038;6.992;2023-03-04T07:05:24;55925.56;;;-144.33;100.00
19843;BME280;10082;51.038;6.992;2023-03-04T07:07:51;57414.59;;;-144.33;100.00
19843;BME280;10082;51.038;6.992;2023-03-04T07:10:18;58661.88;;;-144.33;100.00
19843;BME280;10082;51.038;6.992;2023-03-04T07:12:46;60346.69;;;-144.33;100.00
19843;BME280;10082;51.038;6.992;2023-03-04T07:15:13;62413.94;;;-144.33;100.00
19843;BME280;10082;51.038;6.992;2023-03-04T07:17:43;64446.47;;;-144.33;100.00
19843;BME280;10082;51.038;6.992;2023-03-04T07:20:10;66320.81;;;-144.33;100.00
19843;BME280;10082;51.038;6.992;2023-03-04T07:22:38;68289.63;;;-144.33;100.00
19843;BME280;10082;51.038;6.992;2023-03-04T07:25:06;70747.53;;;-144.33;100.00
19843;BME280;10082;51.038;6.992;2023-03-04T07:27:34;71881.41;;;-144.33;100.00
19843;BME280;10082;51.038;6.992;2023-03-04T07:30:04;71480.81;;;-144.33;100.00
19843;BME280;10082;51.038;6.992;2023-03-04T07:32:31;71534.63;;;-144.33;100.00
19843;BME280;10082;51.038;6.992;2023-03-04T07:35:01;72770.38;;;-144.33;100.00
19843;BME280;10082;51.038;6.992;2023-03-04T07:37:29;74536.94;;;-144.33;100.00
19843;BME280;10082;51.038;6.992;2023-03-04T07:39:57;75965.13;;;-144.33;100.00
19843;BME280;10082;51.038;6.992;2023-03-04T07:42:24;77787.00;;;-144.33;100.00
19843;BME280;10082;51.038;6.992;2023-03-04T07:44:58;79773.47;;;-144.33;100.00
19843;BME280;10082;51.038;6.992;2023-03-04T07:47:26;80432.50;;;-144.33;100.00
19843;BME280;10082;51.038;6.992;2023-03-04T07:49:54;79837.34;;;-144.33;100.00
19843;BME280;10082;51.038;6.992;2023-03-04T07:52:23;79973.16;;;-144.33;100.00
19843;BME280;10082;51.038;6.992;2023-03-04T07:54:50;81607.06;;;-144.33;100.00
19843;BME280;10082;51.038;6.992;2023-03-04T07:57:18;83543.44;;;-144.33;100.00
19843;BME280;10082;51.038;6.992;2023-03-04T07:59:45;85050.81;;;-144.33;100.00
19843;BME280;10082;51.038;6.992;2023-03-04T08:02:12;86602.75;;;-144.33;100.00
19843;BME280;10082;51.038;6.992;2023-03-04T08:04:40;88705.66;;;-144.33;100.00
19843;BME280;10082;51.038;6.992;2023-03-04T08:07:07;91112.00;;;-144.33;100.00
19843;BME280;10082;51.038;6.992;2023-03-04T08:09:36;92830.56;;;-144.33;100.00
19843;BME280;10082;51.038;6.992;2023-03-04T08:12:04;93371.53;;;-144.33;100.00
19843;BME280;10082;51.038;6.992;2023-03-04T08:14:31;95175.25;;;-144.33;100.00
19843;BME280;10082;51.038;6.992;2023-03-04T08:16:58;96638.84;;;-144.33;100.00
19843;BME280;10082;51.038;6.992;2023-03-04T08:19:26;97719.84;;;-144.33;100.00
19843;BME280;10082;51.038;6.992;2023-03-04T08:21:53;98658.69;;;-144.33;100.00
19843;BME280;10082;51.038;6.992;2023-03-04T08:24:21;99168.34;;;-144.33;100.00
19843;BME280;10082;51.038;6.992;2023-03-04T08:26:51;99804.47;;;-144.33;100.00
19843;BME280;10082;51.038;6.992;2023-03-04T08:29:20;100687.56;;;-144.33;100.00
19843;BME280;10082;51.038;6.992;2023-03-04T08:31:48;101093.06;;;-144.33;100.00
19843;BME280;10082;51.038;6.992;2023-03-04T08:34:16;100820.06;;;-144.33;100.00
19843;BME280;10082;51.038;6.992;2023-03-04T08:36:44;102243.53;;;-144.33;100.00
19843;BME280;10082;51.038;6.992;2023-03-04T08:39:12;102482.50;;;-144.33;100.00
19843;BME280;10082;51.038;6.992;2023-03-04T08:41:40;101613.06;;;-144.33;100.00
19843;BME280;10082;51.038;6.992;2023-03-04T08:44:09;100017.19;;;-144.33;100.00
19843;BME280;10082;51.038;6.992;2023-03-04T08:46:36;99039.91;;;-144.33;100.00
19843;BME280;10082;51.038;6.992;2023-03-04T08:49:05;97577.44;;;-144.33;100.00
19843;BME280;10082;51.038;6.992;2023-03-04T08:51:33;96075.41;;;-144.33;100.00
19843;BME280;10082;51.038;6.992;2023-03-04T08:54:01;95518.03;;;-144.33;100.00
19843;BME280;10082;51.038;6.992;2023-03-04T08:56:29;93664.06;;;-144.33;100.00
19843;BME280;10082;51.038;6.992;2023-03-04T08:59:09;92301.72;;;-144.33;100.00
19843;BME280;10082;51.038;6.992;2023-03-04T09:01:37;90827.66;;;-144.33;100.00
19843;BME280;10082;51.038;6.992;2023-03-04T09:04:04;89522.28;;;-144.33;100.00
19843;BME280;10082;51.038;6.992;2023-03-04T09:06:31;89039.88;;;-144.33;100.00
19843;BME280;10082;51.038;6.992;2023-03-04T09:08:58;87875.16;;;-144.33;100.00
19843;BME280;10082;51.038;6.992;2023-03-04T09:11:26;87501.00;;;-144.33;100.00
19843;BME280;10082;51.038;6.992;2023-03-04T09:13:53;87701.09;;;-144.33;100.00
19843;BME280;10082;51.038;6.992;2023-03-04T09:16:22;87240.91;;;-144.33;100.00
19843;BME280;10082;51.038;6.992;2023-03-04T09:18:49;86816.81;;;-144.33;100.00
19843;BME280;10082;51.038;6.992;2023-03-04T09:21:16;88985.84;;;-144.33;100.00
19843;BME280;10082;51.038;6.992;2023-03-04T09:23:44;91506.53;;;-144.33;100.00
19843;BME280;10082;51.038;6.992;2023-03-04T09:26:16;91464.47;;;-144.33;100.00
19843;BME280;10082;51.038;6.992;2023-03-04T09:28:44;94074.88;;;-144.33;100.00
19843;BME280;10082;51.038;6.992;2023-03-04T09:31:13;95149.19;;;-144.33;100.00
19843;BME280;10082;51.038;6.992;2023-03-04T09:33:42;99080.03;;;-144.33;100.00
19843;BME280;10082;51.038;6.992;2023-03-04T09:36:10;100551.09;;;-144.33;100.00
19843;BME280;10082;51.038;6.992;2023-03-04T09:38:44;105204.53;;;-144.33;100.00
19843;BME280;10082;51.038;6.992;2023-03-04T09:41:14;103788.03;;;-144.33;100.00
19843;BME280;10082;51.038;6.992;2023-03-04T09:43:43;100133.59;;;-144.33;100.00
19843;BME280;10082;51.038;6.992;2023-03-04T09:46:13;101121.19;;;-144.33;100.00
19843;BME280;10082;51.038;6.992;2023-03-04T09:48:46;98807.16;;;-144.33;100.00
19843;BME280;10082;51.038;6.992;2023-03-04T09:51:19;95652.38;;;-144.33;100.00
19843;BME280;10082;51.038;6.992;2023-03-04T09:53:58;90631.41;;;-144.33;100.00
19843;BME280;10082;51.038;6.992;2023-03-04T09:56:33;91394.38;;;-144.33;100.00
19843;BME280;10082;51.038;6.992;2023-03-04T09:59:07;90006.75;;;-144.33;100.00
19843;BME280;10082;51.038;6.992;2023-03-04T10:01:44;89510.28;;;-144.33;100.00
19843;BME280;10082;51.038;6.992;2023-03-04T10:04:28;83753.31;;;-144.33;100.00
19843;BME280;10082;51.038;6.992;2023-03-04T10:06:57;81107.63;;;-144.33;100.00
19843;BME280;10082;51.038;6.992;2023-03-04T10:09:28;77200.25;;;-144.33;100.00
19843;BME280;10082;51.038;6.992;2023-03-04T10:12:00;78755.16;;;-144.33;100.00
19843;BME280;10082;51.038;6.992;2023-03-04T10:14:37;79160.44;;;-144.33;100.00
19843;BME280;10082;51.038;6.992;2023-03-04T10:17:12;80404.53;;;-144.33;100.00
19843;BME280;10082;51.038;6.992;2023-03-04T10:19:53;80796.00;;;-144.33;100.00
19843;BME280;10082;51.038;6.992;2023-03-04T10:22:26;78395.81;;;-144.33;100.00
19843;BME280;10082;51.038;6.992;2023-03-04T10:24:57;75430.50;;;-144.33;100.00
19843;BME280;10082;51.038;6.992;2023-03-04T10:27:25;73089.34;;;-144.33;100.00
19843;BME280;10082;51.038;6.992;2023-03-04T10:29:55;68100.47;;;-144.33;100.00
19843;BME280;10082;51.038;6.992;2023-03-04T10:32:24;66328.78;;;-144.33;100.00
19843;BME280;10082;51.038;6.992;2023-03-04T10:34:53;63623.00;;;-144.33;100.00
19843;BME280;10082;51.038;6.992;2023-03-04T10:37:21;61988.47;;;-144.33;100.00
19843;BME280;10082;51.038;6.992;2023-03-04T10:39:48;62467.63;;;-144.33;100.00
19843;BME280;10082;51.038;6.992;2023-03-04T10:42:26;63491.72;;;-144.33;100.00
19843;BME280;10082;51.038;6.992;2023-03-04T10:45:01;64862.25;;;-144.33;100.00
19843;BME280;10082;51.038;6.992;2023-03-04T10:47:30;65093.03;;;-144.33;100.00
19843;BME280;10082;51.038;6.992;2023-03-04T10:50:03;65634.25;;;-144.33;100.00
19843;BME280;10082;51.038;6.992;2023-03-04T10:52:33;62388.09;;;-144.33;100.00
19843;BME280;10082;51.038;6.992;2023-03-04T10:55:03;63094.00;;;-144.33;100.00
19843;BME280;10082;51.038;6.992;2023-03-04T10:57:34;62702.25;;;-144.33;100.00
19843;BME280;10082;51.038;6.992;2023-03-04T11:00:23;59994.97;;;-144.33;100.00
19843;BME280;10082;51.038;6.992;2023-03-04T11:02:51;57470.22;;;-144.33;100.00
19843;BME280;10082;51.038;6.992;2023-03-04T11:05:22;57893.22;;;-144.33;100.00
19843;BME280;10082;51.038;6.992;2023-03-04T11:07:51;59478.34;;;-144.33;100.00
19843;BME280;10082;51.038;6.992;2023-03-04T11:10:20;63859.69;;;-144.33;100.00
19843;BME280;10082;51.038;6.992;2023-03-04T11:12:49;66907.97;;;-144.33;100.00
19843;BME280;10082;51.038;6.992;2023-03-04T11:15:21;68582.34;;;-144.33;100.00
19843;BME280;10082;51.038;6.992;2023-03-04T11:17:54;74076.28;;;-144.33;100.00
19843;BME280;10082;51.038;6.992;2023-03-04T11:20:31;76513.81;;;-144.33;100.00
19843;BME280;10082;51.038;6.992;2023-03-04T11:23:03;76495.84;;;-144.33;100.00
19843;BME280;10082;51.038;6.992;2023-03-04T11:25:34;84940.84;;;-144.33;100.00
19843;BME280;10082;51.038;6.992;2023-03-04T11:28:03;89208.03;;;-144.33;100.00
19843;BME280;10082;51.038;6.992;2023-03-04T11:30:37;102892.19;;;-144.33;100.00
19843;BME280;10082;51.038;6.992;2023-03-04T11:33:12;106619.50;;;-144.33;100.00
19843;BME280;10082;51.038;6.992;2023-03-04T11:35:53;112171.53;;;-144.33;100.00
19843;BME280;10082;51.038;6.992;2023-03-04T11:38:28;112171.53;;;-144.33;100.00
19843;BME280;10082;51.038;6.992;2023-03-04T11:41:00;112171.53;;;-144.33;100.00
19843;BME280;10082;51.038;6.992;2023-03-04T11:43:34;112171.53;;;-144.33;100.00
19843;BME280;10082;51.038;6.992;2023-03-04T11:49:28;112171.53;;;-144.33;100.00
19843;BME280;10082;51.038;6.992;2023-03-04T11:52:03;112171.53;;;-144.33;100.00
19843;BME280;10082;51.038;6.992;2023-03-04T11:54:39;112171.53;;;-144.33;100.00
19843;BME280;10082;51.038;6.992;2023-03-04T11:57:17;112171.53;;;-144.33;100.00
19843;BME280;10082;51.038;6.992;2023-03-04T12:00:10;112171.53;;;-144.33;100.00
19843;BME280;10082;51.038;6.992;2023-03-04T12:02:47;112171.53;;;-144.33;100.00
19843;BME280;10082;51.038;6.992;2023-03-04T12:05:26;112171.53;;;-144.33;100.00
19843;BME280;10082;51.038;6.992;2023-03-04T12:08:26;112171.53;;;-144.33;100.00
19843;BME280;10082;51.038;6.992;2023-03-04T12:11:01;112171.53;;;-144.33;100.00
19843;BME280;10082;51.038;6.992;2023-03-04T12:13:54;112171.53;;;-144.33;100.00
19843;BME280;10082;51.038;6.992;2023-03-04T12:16:43;112171.53;;;-144.33;100.00
19843;BME280;10082;51.038;6.992;2023-03-04T12:19:26;112171.53;;;-144.33;100.00
19843;BME280;10082;51.038;6.992;2023-03-04T12:22:17;112171.53;;;-144.33;100.00
19843;BME280;10082;51.038;6.992;2023-03-04T12:25:06;112171.53;;;-144.33;100.00
19843;BME280;10082;51.038;6.992;2023-03-04T12:27:40;112171.53;;;-144.33;100.00
19843;BME280;10082;51.038;6.992;2023-03-04T12:30:19;112171.53;;;-144.33;100.00
19843;BME280;10082;51.038;6.992;2023-03-04T12:32:55;112171.53;;;-144.33;100.00
19843;BME280;10082;51.038;6.992;2023-03-04T12:35:34;112171.53;;;-144.33;100.00
19843;BME280;10082;51.038;6.992;2023-03-04T12:38:19;112171.53;;;-144.33;100.00
19843;BME280;10082;51.038;6.992;2023-03-04T12:40:54;112171.53;;;-144.33;100.00
19843;BME280;10082;51.038;6.992;2023-03-04T12:43:41;112171.53;;;-144.33;100.00